sensor_id;sensor_type;location;lat;lon;timestamp;temperature;humidity
41058;DHT22;66768;48.884;2.258;2023-04-16T00:01:54;10.80;99.90
41058;DHT22;66768;48.884;2.258;2023-04-16T00:04:21;10.80;99.90
41058;DHT22;66768;48.884;2.258;2023-04-16T00:06:50;10.80;99.90
41058;DHT22;66768;48.884;2.258;2023-04-16T00:09:16;10.70;99.90
41058;DHT22;66768;48.884;2.258;2023-04-16T00:11:43;10.70;99.90
41058;DHT22;66768;48.884;2.258;2023-04-16T00:14:10;10.60;99.90
41058;DHT22;66768;48.884;2.258;2023-04-16T00:16:37;10.70;99.90
41058;DHT22;66768;48.884;2.258;2023-04-16T00:19:04;10.60;99.90
41058;DHT22;66768;48.884;2.258;2023-04-16T00:21:30;10.60;99.90
41058;DHT22;66768;48.884;2.258;2023-04-16T00:23:59;10.50;99.90
41058;DHT22;66768;48.884;2.258;2023-04-16T00:26:26;10.50;99.90
41058;DHT22;66768;48.884;2.258;2023-04-16T00:28:52;10.50;99.90
41058;DHT22;66768;48.884;2.258;2023-04-16T00:31:26;10.50;99.90
41058;DHT22;66768;48.884;2.258;2023-04-16T00:33:53;10.50;99.90
41058;DHT22;66768;48.884;2.258;2023-04-16T00:36:20;10.50;99.90
41058;DHT22;66768;48.884;2.258;2023-04-16T00:38:47;10.50;99.90
41058;DHT22;66768;48.884;2.258;2023-04-16T00:41:15;10.50;99.90
41058;DHT22;66768;48.884;2.258;2023-04-16T00:43:42;10.40;99.90
41058;DHT22;66768;48.884;2.258;2023-04-16T00:46:09;10.40;99.90
41058;DHT22;66768;48.884;2.258;2023-04-16T00:48:37;10.40;99.90
41058;DHT22;66768;48.884;2.258;2023-04-16T00:51:04;10.40;99.90
41058;DHT22;66768;48.884;2.258;2023-04-16T00:53:32;10.40;99.90
41058;DHT22;66768;48.884;2.258;2023-04-16T00:56:01;10.40;99.90
41058;DHT22;66768;48.884;2.258;2023-04-16T00:58:30;10.40;99.90
41058;DHT22;66768;48.884;2.258;2023-04-16T01:00:57;10.30;99.90
41058;DHT22;66768;48.884;2.258;2023-04-16T01:03:32;10.30;99.90
41058;DHT22;66768;48.884;2.258;2023-04-16T01:06:00;10.30;99.90
41058;DHT22;66768;48.884;2.258;2023-04-16T01:08:27;10.30;99.90
41058;DHT22;66768;48.884;2.258;2023-04-16T01:10:54;10.30;99.90
41058;DHT22;66768;48.884;2.258;2023-04-16T01:13:21;10.20;99.90
41058;DHT22;66768;48.884;2.258;2023-04-16T01:15:49;10.30;99.90
41058;DHT22;66768;48.884;2.258;2023-04-16T01:18:17;10.20;99.90
41058;DHT22;66768;48.884;2.258;2023-04-16T01:20:45;10.30;99.90
41058;DHT22;66768;48.884;2.258;2023-04-16T01:23:13;10.30;99.90
41058;DHT22;66768;48.884;2.258;2023-04-16T01:25:40;10.30;99.90
41058;DHT22;66768;48.884;2.258;2023-04-16T01:28:07;10.30;99.90
41058;DHT22;66768;48.884;2.258;2023-04-16T01:30:33;10.30;99.90
41058;DHT22;66768;48.884;2.258;2023-04-16T01:33:01;10.30;99.90
41058;DHT22;66768;48.884;2.258;2023-04-16T01:35:27;10.20;99.90
41058;DHT22;66768;48.884;2.258;2023-04-16T01:37:56;10.20;99.90
41058;DHT22;66768;48.884;2.258;2023-04-16T01:40:23;10.10;99.90
41058;DHT22;66768;48.884;2.258;2023-04-16T01:42:49;10.10;99.90
41058;DHT22;66768;48.884;2.258;2023-04-16T01:45:16;10.10;99.90
41058;DHT22;66768;48.884;2.258;2023-04-16T01:47:43;10.10;99.90
41058;DHT22;66768;48.884;2.258;2023-04-16T01:50:10;10.10;99.90
41058;DHT22;66768;48.884;2.258;2023-04-16T01:52:37;10.00;99.90
41058;DHT22;66768;48.884;2.258;2023-04-16T01:55:06;10.00;99.90
41058;DHT22;66768;48.884;2.258;2023-04-16T01:57:33;10.00;99.90
41058;DHT22;66768;48.884;2.258;2023-04-16T01:59:59;10.00;99.90
41058;DHT22;66768;48.884;2.258;2023-04-16T02:02:26;10.00;99.90
41058;DHT22;66768;48.884;2.258;2023-04-16T02:04:54;10.00;99.90
41058;DHT22;66768;48.884;2.258;2023-04-16T02:07:22;10.00;99.90
41058;DHT22;66768;48.884;2.258;2023-04-16T02:09:49;10.00;99.90
41058;DHT22;66768;48.884;2.258;2023-04-16T02:12:18;10.00;99.90
41058;DHT22;66768;48.884;2.258;2023-04-16T02:14:45;10.00;99.90
41058;DHT22;66768;48.884;2.258;2023-04-16T02:17:12;9.90;99.90
41058;DHT22;66768;48.884;2.258;2023-04-16T02:19:40;9.90;99.90
41058;DHT22;66768;48.884;2.258;2023-04-16T02:22:06;9.90;99.90
41058;DHT22;66768;48.884;2.258;2023-04-16T02:24:33;9.90;99.90
41058;DHT22;66768;48.884;2.258;2023-04-16T02:27:00;9.90;99.90
41058;DHT22;66768;48.884;2.258;2023-04-16T02:29:28;9.80;99.90
41058;DHT22;66768;48.884;2.258;2023-04-16T02:31:56;9.80;99.90
41058;DHT22;66768;48.884;2.258;2023-04-16T02:34:24;9.70;99.90
41058;DHT22;66768;48.884;2.258;2023-04-16T02:36:51;9.70;99.90
41058;DHT22;66768;48.884;2.258;2023-04-16T02:39:18;9.70;99.90
41058;DHT22;66768;48.884;2.258;2023-04-16T02:41:45;9.60;99.90
41058;DHT22;66768;48.884;2.258;2023-04-16T02:44:12;9.60;99.90
41058;DHT22;66768;48.884;2.258;2023-04-16T02:46:40;9.70;99.90
41058;DHT22;66768;48.884;2.258;2023-04-16T02:49:07;9.60;99.90
41058;DHT22;66768;48.884;2.258;2023-04-16T02:51:34;9.50;99.90
41058;DHT22;66768;48.884;2.258;2023-04-16T02:54:01;9.60;99.90
41058;DHT22;66768;48.884;2.258;2023-04-16T02:56:28;9.60;99.90
41058;DHT22;66768;48.884;2.258;2023-04-16T02:58:54;9.60;99.90
41058;DHT22;66768;48.884;2.258;2023-04-16T03:01:21;9.60;99.90
41058;DHT22;66768;48.884;2.258;2023-04-16T03:03:49;9.50;99.90
41058;DHT22;66768;48.884;2.258;2023-04-16T03:06:16;9.50;99.90
41058;DHT22;66768;48.884;2.258;2023-04-16T03:08:43;9.50;99.90
41058;DHT22;66768;48.884;2.258;2023-04-16T03:11:10;9.50;99.90
41058;DHT22;66768;48.884;2.258;2023-04-16T03:13:37;9.60;99.90
41058;DHT22;66768;48.884;2.258;2023-04-16T03:16:04;9.70;99.90
41058;DHT22;66768;48.884;2.258;2023-04-16T03:18:31;9.50;99.90
41058;DHT22;66768;48.884;2.258;2023-04-16T03:20:59;9.50;99.90
41058;DHT22;66768;48.884;2.258;2023-04-16T03:23:26;9.50;99.90
41058;DHT22;66768;48.884;2.258;2023-04-16T03:25:53;9.50;99.90
41058;DHT22;66768;48.884;2.258;2023-04-16T03:28:20;9.40;99.90
41058;DHT22;66768;48.884;2.258;2023-04-16T03:30:50;9.40;99.90
41058;DHT22;66768;48.884;2.258;2023-04-16T03:33:18;9.40;99.90
41058;DHT22;66768;48.884;2.258;2023-04-16T03:35:45;9.40;99.90
41058;DHT22;66768;48.884;2.258;2023-04-16T03:38:13;9.40;99.90
41058;DHT22;66768;48.884;2.258;2023-04-16T03:40:40;9.50;99.90
41058;DHT22;66768;48.884;2.258;2023-04-16T03:43:07;9.40;99.90
41058;DHT22;66768;48.884;2.258;2023-04-16T03:45:34;9.30;99.90
41058;DHT22;66768;48.884;2.258;2023-04-16T03:48:00;9.30;99.90
41058;DHT22;66768;48.884;2.258;2023-04-16T03:50:27;9.30;99.90
41058;DHT22;66768;48.884;2.258;2023-04-16T03:52:54;9.40;99.90
41058;DHT22;66768;48.884;2.258;2023-04-16T03:55:22;9.40;99.90
41058;DHT22;66768;48.884;2.258;2023-04-16T03:57:49;9.40;99.90
41058;DHT22;66768;48.884;2.258;2023-04-16T04:00:16;9.40;99.90
41058;DHT22;66768;48.884;2.258;2023-04-16T04:02:43;9.40;99.90
41058;DHT22;66768;48.884;2.258;2023-04-16T04:05:10;9.30;99.90
41058;DHT22;66768;48.884;2.258;2023-04-16T04:07:37;9.30;99.90
41058;DHT22;66768;48.884;2.258;2023-04-16T04:10:04;9.30;99.90
41058;DHT22;66768;48.884;2.258;2023-04-16T04:12:32;9.30;99.90
41058;DHT22;66768;48.884;2.258;2023-04-16T04:14:59;9.30;99.90
41058;DHT22;66768;48.884;2.258;2023-04-16T04:17:26;9.10;99.90
41058;DHT22;66768;48.884;2.258;2023-04-16T04:19:53;9.20;99.90
41058;DHT22;66768;48.884;2.258;2023-04-16T04:22:20;9.20;99.90
41058;DHT22;66768;48.884;2.258;2023-04-16T04:24:47;9.10;99.90
41058;DHT22;66768;48.884;2.258;2023-04-16T04:27:13;9.10;99.90
41058;DHT22;66768;48.884;2.258;2023-04-16T04:29:41;9.10;99.90
41058;DHT22;66768;48.884;2.258;2023-04-16T04:32:11;9.10;99.90
41058;DHT22;66768;48.884;2.258;2023-04-16T04:34:38;9.10;99.90
41058;DHT22;66768;48.884;2.258;2023-04-16T04:37:05;9.10;99.90
41058;DHT22;66768;48.884;2.258;2023-04-16T04:39:32;9.00;99.90
41058;DHT22;66768;48.884;2.258;2023-04-16T04:41:59;9.10;99.90
41058;DHT22;66768;48.884;2.258;2023-04-16T04:44:27;9.10;99.90
41058;DHT22;66768;48.884;2.258;2023-04-16T04:46:56;9.10;99.90
41058;DHT22;66768;48.884;2.258;2023-04-16T04:49:22;9.10;99.90
41058;DHT22;66768;48.884;2.258;2023-04-16T04:51:49;9.00;99.90
41058;DHT22;66768;48.884;2.258;2023-04-16T04:54:16;9.10;99.90
41058;DHT22;66768;48.884;2.258;2023-04-16T04:56:43;9.00;99.90
41058;DHT22;66768;48.884;2.258;2023-04-16T04:59:11;9.10;99.90
41058;DHT22;66768;48.884;2.258;2023-04-16T05:01:38;9.00;99.90
41058;DHT22;66768;48.884;2.258;2023-04-16T05:04:06;9.00;99.90
41058;DHT22;66768;48.884;2.258;2023-04-16T05:06:33;8.90;99.90
41058;DHT22;66768;48.884;2.258;2023-04-16T05:09:00;9.00;99.90
41058;DHT22;66768;48.884;2.258;2023-04-16T05:11:27;9.00;99.90
41058;DHT22;66768;48.884;2.258;2023-04-16T05:13:53;8.90;99.90
41058;DHT22;66768;48.884;2.258;2023-04-16T05:16:20;8.90;99.90
41058;DHT22;66768;48.884;2.258;2023-04-16T05:18:47;9.00;99.90
41058;DHT22;66768;48.884;2.258;2023-04-16T05:21:16;8.90;99.90
41058;DHT22;66768;48.884;2.258;2023-04-16T05:23:43;9.00;99.90
41058;DHT22;66768;48.884;2.258;2023-04-16T05:26:09;8.90;99.90
41058;DHT22;66768;48.884;2.258;2023-04-16T05:28:36;9.00;99.90
41058;DHT22;66768;48.884;2.258;2023-04-16T05:31:03;8.90;99.90
41058;DHT22;66768;48.884;2.258;2023-04-16T05:33:30;9.00;99.90
41058;DHT22;66768;48.884;2.258;2023-04-16T05:35:57;8.90;99.90
41058;DHT22;66768;48.884;2.258;2023-04-16T05:38:25;9.00;99.90
41058;DHT22;66768;48.884;2.258;2023-04-16T05:40:52;8.90;99.90
41058;DHT22;66768;48.884;2.258;2023-04-16T05:43:19;8.90;99.90
41058;DHT22;66768;48.884;2.258;2023-04-16T05:45:46;8.90;99.90
41058;DHT22;66768;48.884;2.258;2023-04-16T05:48:12;8.80;99.90
41058;DHT22;66768;48.884;2.258;2023-04-16T05:50:39;8.80;99.90
41058;DHT22;66768;48.884;2.258;2023-04-16T05:53:07;8.90;99.90
41058;DHT22;66768;48.884;2.258;2023-04-16T05:55:36;8.90;99.90
41058;DHT22;66768;48.884;2.258;2023-04-16T05:58:03;9.00;99.90
41058;DHT22;66768;48.884;2.258;2023-04-16T06:00:31;8.90;99.90
41058;DHT22;66768;48.884;2.258;2023-04-16T06:02:57;9.00;99.90
41058;DHT22;66768;48.884;2.258;2023-04-16T06:05:25;9.00;99.90
41058;DHT22;66768;48.884;2.258;2023-04-16T06:07:52;9.00;99.90
41058;DHT22;66768;48.884;2.258;2023-04-16T06:10:20;9.00;99.90
41058;DHT22;66768;48.884;2.258;2023-04-16T06:12:48;9.10;99.90
41058;DHT22;66768;48.884;2.258;2023-04-16T06:15:15;9.10;99.90
41058;DHT22;66768;48.884;2.258;2023-04-16T06:17:42;9.20;99.90
41058;DHT22;66768;48.884;2.258;2023-04-16T06:20:11;9.20;99.90
41058;DHT22;66768;48.884;2.258;2023-04-16T06:22:38;9.10;99.90
41058;DHT22;66768;48.884;2.258;2023-04-16T06:25:05;9.10;99.90
41058;DHT22;66768;48.884;2.258;2023-04-16T06:27:32;9.10;99.90
41058;DHT22;66768;48.884;2.258;2023-04-16T06:30:00;9.20;99.90
41058;DHT22;66768;48.884;2.258;2023-04-16T06:32:27;9.20;99.90
41058;DHT22;66768;48.884;2.258;2023-04-16T06:34:54;9.20;99.90
41058;DHT22;66768;48.884;2.258;2023-04-16T06:37:23;9.20;99.90
41058;DHT22;66768;48.884;2.258;2023-04-16T06:39:50;9.30;99.90
41058;DHT22;66768;48.884;2.258;2023-04-16T06:42:17;9.30;99.90
41058;DHT22;66768;48.884;2.258;2023-04-16T06:44:43;9.40;99.90
41058;DHT22;66768;48.884;2.258;2023-04-16T06:47:12;9.30;99.90
41058;DHT22;66768;48.884;2.258;2023-04-16T06:49:38;9.40;99.90
41058;DHT22;66768;48.884;2.258;2023-04-16T06:52:06;9.40;99.90
41058;DHT22;66768;48.884;2.258;2023-04-16T06:54:32;9.50;99.90
41058;DHT22;66768;48.884;2.258;2023-04-16T06:56:59;9.40;99.90
41058;DHT22;66768;48.884;2.258;2023-04-16T06:59:26;9.40;99.90
41058;DHT22;66768;48.884;2.258;2023-04-16T07:01:53;9.50;99.90
41058;DHT22;66768;48.884;2.258;2023-04-16T07:04:22;9.60;99.90
41058;DHT22;66768;48.884;2.258;2023-04-16T07:06:49;9.50;99.90
41058;DHT22;66768;48.884;2.258;2023-04-16T07:09:16;9.60;99.90
41058;DHT22;66768;48.884;2.258;2023-04-16T07:11:43;9.60;99.90
41058;DHT22;66768;48.884;2.258;2023-04-16T07:14:10;9.50;99.90
41058;DHT22;66768;48.884;2.258;2023-04-16T07:16:37;9.40;99.90
41058;DHT22;66768;48.884;2.258;2023-04-16T07:19:04;9.50;99.90
41058;DHT22;66768;48.884;2.258;2023-04-16T07:21:32;9.50;99.90
41058;DHT22;66768;48.884;2.258;2023-04-16T07:23:59;9.60;99.90
41058;DHT22;66768;48.884;2.258;2023-04-16T07:26:26;9.60;99.90
41058;DHT22;66768;48.884;2.258;2023-04-16T07:28:53;9.70;99.90
41058;DHT22;66768;48.884;2.258;2023-04-16T07:31:20;9.80;99.90
41058;DHT22;66768;48.884;2.258;2023-04-16T07:33:47;9.90;99.90
41058;DHT22;66768;48.884;2.258;2023-04-16T07:36:13;10.00;99.90
41058;DHT22;66768;48.884;2.258;2023-04-16T07:38:42;10.10;99.90
41058;DHT22;66768;48.884;2.258;2023-04-16T07:41:09;10.10;99.90
41058;DHT22;66768;48.884;2.258;2023-04-16T07:43:36;10.20;99.90
41058;DHT22;66768;48.884;2.258;2023-04-16T07:46:02;10.20;99.90
41058;DHT22;66768;48.884;2.258;2023-04-16T07:48:29;10.20;99.90
41058;DHT22;66768;48.884;2.258;2023-04-16T07:50:56;10.20;99.90
41058;DHT22;66768;48.884;2.258;2023-04-16T07:53:23;10.30;99.90
41058;DHT22;66768;48.884;2.258;2023-04-16T07:55:51;10.30;99.90
41058;DHT22;66768;48.884;2.258;2023-04-16T07:58:18;10.40;99.90
41058;DHT22;66768;48.884;2.258;2023-04-16T08:00:45;10.50;99.90
41058;DHT22;66768;48.884;2.258;2023-04-16T08:03:12;10.50;99.90
41058;DHT22;66768;48.884;2.258;2023-04-16T08:05:40;10.60;99.90
41058;DHT22;66768;48.884;2.258;2023-04-16T08:08:07;10.70;99.90
41058;DHT22;66768;48.884;2.258;2023-04-16T08:10:34;10.70;99.90
41058;DHT22;66768;48.884;2.258;2023-04-16T08:13:03;10.70;99.90
41058;DHT22;66768;48.884;2.258;2023-04-16T08:15:30;10.80;99.90
41058;DHT22;66768;48.884;2.258;2023-04-16T08:17:57;10.90;99.90
41058;DHT22;66768;48.884;2.258;2023-04-16T08:20:24;10.90;99.90
41058;DHT22;66768;48.884;2.258;2023-04-16T08:22:52;10.90;99.90
41058;DHT22;66768;48.884;2.258;2023-04-16T08:25:19;10.80;99.90
41058;DHT22;66768;48.884;2.258;2023-04-16T08:27:48;10.90;99.90
41058;DHT22;66768;48.884;2.258;2023-04-16T08:30:16;11.00;99.90
41058;DHT22;66768;48.884;2.258;2023-04-16T08:32:43;11.00;99.90
41058;DHT22;66768;48.884;2.258;2023-04-16T08:35:11;11.10;99.90
41058;DHT22;66768;48.884;2.258;2023-04-16T08:37:38;11.10;99.90
41058;DHT22;66768;48.884;2.258;2023-04-16T08:40:06;11.10;99.90
41058;DHT22;66768;48.884;2.258;2023-04-16T08:42:34;11.20;99.90
41058;DHT22;66768;48.884;2.258;2023-04-16T08:45:06;11.30;99.90
41058;DHT22;66768;48.884;2.258;2023-04-16T08:47:35;11.40;99.90
41058;DHT22;66768;48.884;2.258;2023-04-16T08:50:03;11.40;99.90
41058;DHT22;66768;48.884;2.258;2023-04-16T08:52:30;11.40;99.90
41058;DHT22;66768;48.884;2.258;2023-04-16T08:55:03;11.40;99.90
41058;DHT22;66768;48.884;2.258;2023-04-16T08:57:37;11.50;99.90
41058;DHT22;66768;48.884;2.258;2023-04-16T09:00:07;11.50;99.90
41058;DHT22;66768;48.884;2.258;2023-04-16T09:02:36;11.50;99.90
41058;DHT22;66768;48.884;2.258;2023-04-16T09:05:05;11.50;99.90
41058;DHT22;66768;48.884;2.258;2023-04-16T09:07:33;11.50;99.90
41058;DHT22;66768;48.884;2.258;2023-04-16T09:10:00;11.60;99.90
41058;DHT22;66768;48.884;2.258;2023-04-16T09:12:28;11.70;99.90
41058;DHT22;66768;48.884;2.258;2023-04-16T09:14:55;11.70;99.90
41058;DHT22;66768;48.884;2.258;2023-04-16T09:17:24;11.80;99.90
41058;DHT22;66768;48.884;2.258;2023-04-16T09:19:53;11.80;99.90
41058;DHT22;66768;48.884;2.258;2023-04-16T09:22:20;11.80;99.70
41058;DHT22;66768;48.884;2.258;2023-04-16T09:24:46;11.90;99.70
41058;DHT22;66768;48.884;2.258;2023-04-16T09:27:13;11.90;99.70
41058;DHT22;66768;48.884;2.258;2023-04-16T09:29:41;11.90;99.30
41058;DHT22;66768;48.884;2.258;2023-04-16T09:32:09;12.00;99.90
41058;DHT22;66768;48.884;2.258;2023-04-16T09:34:56;12.00;99.90
41058;DHT22;66768;48.884;2.258;2023-04-16T09:37:23;12.10;99.90
41058;DHT22;66768;48.884;2.258;2023-04-16T09:39:56;12.20;99.90
41058;DHT22;66768;48.884;2.258;2023-04-16T09:42:24;12.10;99.90
41058;DHT22;66768;48.884;2.258;2023-04-16T09:44:53;12.20;98.80
41058;DHT22;66768;48.884;2.258;2023-04-16T09:47:20;12.20;98.80
41058;DHT22;66768;48.884;2.258;2023-04-16T09:49:47;12.30;98.60
41058;DHT22;66768;48.884;2.258;2023-04-16T09:52:17;12.30;98.50
41058;DHT22;66768;48.884;2.258;2023-04-16T09:54:48;12.30;97.60
41058;DHT22;66768;48.884;2.258;2023-04-16T09:57:18;12.40;97.80
41058;DHT22;66768;48.884;2.258;2023-04-16T09:59:47;12.40;97.70
41058;DHT22;66768;48.884;2.258;2023-04-16T10:02:14;12.40;97.50
41058;DHT22;66768;48.884;2.258;2023-04-16T10:04:46;12.50;97.60
41058;DHT22;66768;48.884;2.258;2023-04-16T10:07:13;12.50;97.40
41058;DHT22;66768;48.884;2.258;2023-04-16T10:09:42;12.50;97.50
41058;DHT22;66768;48.884;2.258;2023-04-16T10:12:09;12.50;96.60
41058;DHT22;66768;48.884;2.258;2023-04-16T10:14:37;12.60;96.70
41058;DHT22;66768;48.884;2.258;2023-04-16T10:17:04;12.60;96.60
41058;DHT22;66768;48.884;2.258;2023-04-16T10:19:32;12.60;96.60
41058;DHT22;66768;48.884;2.258;2023-04-16T10:21:59;12.70;96.70
41058;DHT22;66768;48.884;2.258;2023-04-16T10:24:27;12.70;96.40
41058;DHT22;66768;48.884;2.258;2023-04-16T10:26:56;12.80;96.70
41058;DHT22;66768;48.884;2.258;2023-04-16T10:29:24;12.80;96.40
41058;DHT22;66768;48.884;2.258;2023-04-16T10:31:53;12.90;96.20
41058;DHT22;66768;48.884;2.258;2023-04-16T10:34:21;12.90;96.50
41058;DHT22;66768;48.884;2.258;2023-04-16T10:36:49;13.00;96.60
41058;DHT22;66768;48.884;2.258;2023-04-16T10:39:18;13.10;96.50
41058;DHT22;66768;48.884;2.258;2023-04-16T10:41:45;13.10;96.40
41058;DHT22;66768;48.884;2.258;2023-04-16T10:44:18;13.10;96.90
41058;DHT22;66768;48.884;2.258;2023-04-16T10:46:46;13.20;96.70
41058;DHT22;66768;48.884;2.258;2023-04-16T10:49:16;13.20;95.80
41058;DHT22;66768;48.884;2.258;2023-04-16T10:51:52;13.30;95.60
41058;DHT22;66768;48.884;2.258;2023-04-16T10:54:24;13.30;95.50
41058;DHT22;66768;48.884;2.258;2023-04-16T10:56:52;13.40;95.00
41058;DHT22;66768;48.884;2.258;2023-04-16T10:59:22;13.50;95.30
41058;DHT22;66768;48.884;2.258;2023-04-16T11:01:50;13.50;95.00
41058;DHT22;66768;48.884;2.258;2023-04-16T11:04:36;13.50;94.80
41058;DHT22;66768;48.884;2.258;2023-04-16T11:07:05;13.50;95.40
41058;DHT22;66768;48.884;2.258;2023-04-16T11:09:44;13.60;94.90
41058;DHT22;66768;48.884;2.258;2023-04-16T11:12:12;13.60;94.90
41058;DHT22;66768;48.884;2.258;2023-04-16T11:14:41;13.60;94.90
41058;DHT22;66768;48.884;2.258;2023-04-16T11:17:08;13.60;94.60
41058;DHT22;66768;48.884;2.258;2023-04-16T11:19:35;13.60;93.70
41058;DHT22;66768;48.884;2.258;2023-04-16T11:22:02;13.70;93.10
41058;DHT22;66768;48.884;2.258;2023-04-16T11:24:30;13.70;93.10
41058;DHT22;66768;48.884;2.258;2023-04-16T11:26:57;13.70;92.30
41058;DHT22;66768;48.884;2.258;2023-04-16T11:29:24;13.70;92.50
41058;DHT22;66768;48.884;2.258;2023-04-16T11:31:53;13.70;92.00
41058;DHT22;66768;48.884;2.258;2023-04-16T11:34:20;13.70;91.80
41058;DHT22;66768;48.884;2.258;2023-04-16T11:36:48;13.70;91.60
41058;DHT22;66768;48.884;2.258;2023-04-16T11:39:15;13.70;91.90
41058;DHT22;66768;48.884;2.258;2023-04-16T11:41:43;13.80;91.70
41058;DHT22;66768;48.884;2.258;2023-04-16T11:44:18;13.80;91.40
41058;DHT22;66768;48.884;2.258;2023-04-16T11:46:44;13.80;91.60
41058;DHT22;66768;48.884;2.258;2023-04-16T11:49:13;13.90;91.40
41058;DHT22;66768;48.884;2.258;2023-04-16T11:51:40;13.90;90.90
41058;DHT22;66768;48.884;2.258;2023-04-16T11:54:07;13.80;91.10
41058;DHT22;66768;48.884;2.258;2023-04-16T11:56:35;13.90;90.80
41058;DHT22;66768;48.884;2.258;2023-04-16T11:59:07;13.80;90.80
41058;DHT22;66768;48.884;2.258;2023-04-16T12:01:35;13.80;90.70
41058;DHT22;66768;48.884;2.258;2023-04-16T12:04:02;13.80;91.10
41058;DHT22;66768;48.884;2.258;2023-04-16T12:06:31;13.90;91.10
41058;DHT22;66768;48.884;2.258;2023-04-16T12:08:58;13.90;90.90
41058;DHT22;66768;48.884;2.258;2023-04-16T12:11:38;13.90;91.20
41058;DHT22;66768;48.884;2.258;2023-04-16T12:14:09;14.00;91.10
41058;DHT22;66768;48.884;2.258;2023-04-16T12:16:37;13.90;91.20
41058;DHT22;66768;48.884;2.258;2023-04-16T12:19:04;14.00;91.20
41058;DHT22;66768;48.884;2.258;2023-04-16T12:21:40;14.00;90.90
41058;DHT22;66768;48.884;2.258;2023-04-16T12:24:07;14.00;90.60
41058;DHT22;66768;48.884;2.258;2023-04-16T12:26:42;14.00;90.50
41058;DHT22;66768;48.884;2.258;2023-04-16T12:29:20;14.10;90.40
41058;DHT22;66768;48.884;2.258;2023-04-16T12:31:48;14.10;90.30
41058;DHT22;66768;48.884;2.258;2023-04-16T12:34:15;14.10;90.20
41058;DHT22;66768;48.884;2.258;2023-04-16T12:36:44;14.10;88.60
41058;DHT22;66768;48.884;2.258;2023-04-16T12:39:12;14.10;90.00
41058;DHT22;66768;48.884;2.258;2023-04-16T12:41:40;14.10;89.20
41058;DHT22;66768;48.884;2.258;2023-04-16T12:44:09;14.10;89.10
41058;DHT22;66768;48.884;2.258;2023-04-16T12:46:38;14.10;89.50
41058;DHT22;66768;48.884;2.258;2023-04-16T12:49:05;14.10;88.90
41058;DHT22;66768;48.884;2.258;2023-04-16T12:51:32;14.20;88.50
41058;DHT22;66768;48.884;2.258;2023-04-16T12:54:01;14.20;89.90
41058;DHT22;66768;48.884;2.258;2023-04-16T12:56:29;14.20;89.70
41058;DHT22;66768;48.884;2.258;2023-04-16T12:58:56;14.30;88.60
41058;DHT22;66768;48.884;2.258;2023-04-16T13:01:23;14.30;88.80
41058;DHT22;66768;48.884;2.258;2023-04-16T13:03:50;14.30;89.20
41058;DHT22;66768;48.884;2.258;2023-04-16T13:06:17;14.40;90.10
41058;DHT22;66768;48.884;2.258;2023-04-16T13:08:44;14.40;89.40
41058;DHT22;66768;48.884;2.258;2023-04-16T13:11:12;14.40;89.60
41058;DHT22;66768;48.884;2.258;2023-04-16T13:13:40;14.40;89.90
41058;DHT22;66768;48.884;2.258;2023-04-16T13:16:07;14.40;89.30
41058;DHT22;66768;48.884;2.258;2023-04-16T13:18:34;14.40;89.40
41058;DHT22;66768;48.884;2.258;2023-04-16T13:21:02;14.40;89.80
41058;DHT22;66768;48.884;2.258;2023-04-16T13:23:29;14.40;90.00
41058;DHT22;66768;48.884;2.258;2023-04-16T13:25:56;14.50;89.70
41058;DHT22;66768;48.884;2.258;2023-04-16T13:28:24;14.50;90.40
41058;DHT22;66768;48.884;2.258;2023-04-16T13:30:51;14.50;90.40
41058;DHT22;66768;48.884;2.258;2023-04-16T13:33:19;14.50;90.20
41058;DHT22;66768;48.884;2.258;2023-04-16T13:35:46;14.50;90.20
41058;DHT22;66768;48.884;2.258;2023-04-16T13:38:13;14.50;89.70
41058;DHT22;66768;48.884;2.258;2023-04-16T13:40:40;14.50;89.90
41058;DHT22;66768;48.884;2.258;2023-04-16T13:43:07;14.60;89.80
41058;DHT22;66768;48.884;2.258;2023-04-16T13:45:36;14.60;90.20
41058;DHT22;66768;48.884;2.258;2023-04-16T13:48:04;14.60;90.30
41058;DHT22;66768;48.884;2.258;2023-04-16T13:50:31;14.70;89.60
41058;DHT22;66768;48.884;2.258;2023-04-16T13:52:58;14.70;90.30
41058;DHT22;66768;48.884;2.258;2023-04-16T13:55:25;14.60;90.00
41058;DHT22;66768;48.884;2.258;2023-04-16T13:57:52;14.70;90.00
41058;DHT22;66768;48.884;2.258;2023-04-16T14:00:20;14.70;89.50
41058;DHT22;66768;48.884;2.258;2023-04-16T14:02:49;14.70;89.50
41058;DHT22;66768;48.884;2.258;2023-04-16T14:05:16;14.80;90.00
41058;DHT22;66768;48.884;2.258;2023-04-16T14:07:43;14.80;90.30
41058;DHT22;66768;48.884;2.258;2023-04-16T14:10:10;14.80;90.10
41058;DHT22;66768;48.884;2.258;2023-04-16T14:12:37;14.80;90.50
41058;DHT22;66768;48.884;2.258;2023-04-16T14:15:05;14.80;90.10
41058;DHT22;66768;48.884;2.258;2023-04-16T14:17:34;14.80;90.50
41058;DHT22;66768;48.884;2.258;2023-04-16T14:20:03;14.90;90.30
41058;DHT22;66768;48.884;2.258;2023-04-16T14:22:31;15.00;90.10
41058;DHT22;66768;48.884;2.258;2023-04-16T14:24:58;15.00;89.30
41058;DHT22;66768;48.884;2.258;2023-04-16T14:27:25;15.00;89.10
41058;DHT22;66768;48.884;2.258;2023-04-16T14:29:53;15.00;89.40
41058;DHT22;66768;48.884;2.258;2023-04-16T14:32:20;15.00;89.60
41058;DHT22;66768;48.884;2.258;2023-04-16T14:34:46;15.10;89.40
41058;DHT22;66768;48.884;2.258;2023-04-16T14:37:16;15.10;89.70
41058;DHT22;66768;48.884;2.258;2023-04-16T14:39:43;15.10;89.50
41058;DHT22;66768;48.884;2.258;2023-04-16T14:42:10;15.10;90.00
41058;DHT22;66768;48.884;2.258;2023-04-16T14:44:37;15.20;90.00
41058;DHT22;66768;48.884;2.258;2023-04-16T14:47:04;15.20;89.50
41058;DHT22;66768;48.884;2.258;2023-04-16T14:49:32;15.20;89.80
41058;DHT22;66768;48.884;2.258;2023-04-16T14:52:00;15.20;90.20
41058;DHT22;66768;48.884;2.258;2023-04-16T14:54:31;15.10;90.10
41058;DHT22;66768;48.884;2.258;2023-04-16T14:56:58;15.20;89.90
41058;DHT22;66768;48.884;2.258;2023-04-16T14:59:26;15.20;90.20
41058;DHT22;66768;48.884;2.258;2023-04-16T15:01:54;15.20;89.70
41058;DHT22;66768;48.884;2.258;2023-04-16T15:04:21;15.20;89.90
41058;DHT22;66768;48.884;2.258;2023-04-16T15:06:48;15.10;89.60
41058;DHT22;66768;48.884;2.258;2023-04-16T15:09:16;15.20;90.20
41058;DHT22;66768;48.884;2.258;2023-04-16T15:11:44;15.10;90.00
41058;DHT22;66768;48.884;2.258;2023-04-16T15:14:11;15.20;89.90
41058;DHT22;66768;48.884;2.258;2023-04-16T15:16:37;15.20;90.00
41058;DHT22;66768;48.884;2.258;2023-04-16T15:19:04;15.20;89.90
41058;DHT22;66768;48.884;2.258;2023-04-16T15:21:31;15.20;89.90
41058;DHT22;66768;48.884;2.258;2023-04-16T15:23:58;15.10;89.70
41058;DHT22;66768;48.884;2.258;2023-04-16T15:26:25;15.10;89.90
41058;DHT22;66768;48.884;2.258;2023-04-16T15:28:53;15.10;90.00
41058;DHT22;66768;48.884;2.258;2023-04-16T15:31:20;15.10;90.00
41058;DHT22;66768;48.884;2.258;2023-04-16T15:33:47;15.20;89.30
41058;DHT22;66768;48.884;2.258;2023-04-16T15:36:14;15.20;89.50
41058;DHT22;66768;48.884;2.258;2023-04-16T15:38:41;15.20;90.00